Time;durP1;ratioP1;P1;durP2;ratioP2;P2;SDS_P1;SDS_P2;PMS_P1;PMS_P2;Temp;Humidity;BMP_temperature;BMP_pressure;BME280_temperature;BME280_humidity;BME280_pressure;Samples;Min_cycle;Max_cycle;Signal;HPM_P1;HPM_P2
2024/01/21 00:01:48;;;;;;;20.80;12.50;;;;;;;-0.54;100.00;100339.05;109435;1252;65683;-75
2024/01/21 00:04:15;;;;;;;20.00;11.90;;;;;;;-0.53;100.00;100339.74;109479;1252;60830;-76
2024/01/21 00:06:41;;;;;;;21.50;11.90;;;;;;;-0.52;100.00;100347.07;109397;1252;65217;-75
2024/01/21 00:09:08;;;;;;;18.80;12.30;;;;;;;-0.52;100.00;100350.21;109330;1251;59060;-76
2024/01/21 00:11:34;;;;;;;17.80;11.40;;;;;;;-0.51;100.00;100345.66;109391;1251;59036;-75
2024/01/21 00:14:01;;;;;;;23.90;14.10;;;;;;;-0.51;100.00;100343.91;108666;1252;1002435;-75
2024/01/21 00:16:27;;;;;;;22.40;13.10;;;;;;;-0.51;100.00;100344.79;109467;1252;59958;-75
2024/01/21 00:18:54;;;;;;;20.60;13.00;;;;;;;-0.51;100.00;100344.61;109318;1252;65037;-74
2024/01/21 00:21:20;;;;;;;24.10;12.90;;;;;;;-0.52;100.00;100347.07;109413;1251;58959;-75
2024/01/21 00:23:47;;;;;;;20.10;13.10;;;;;;;-0.52;100.00;100354.23;109488;1251;58994;-76
2024/01/21 00:26:13;;;;;;;23.70;13.60;;;;;;;-0.53;100.00;100358.23;109263;1251;66989;-75
2024/01/21 00:28:40;;;;;;;22.00;13.90;;;;;;;-0.54;100.00;100361.38;109526;1251;59393;-74
2024/01/21 00:31:06;;;;;;;19.50;11.60;;;;;;;-0.55;100.00;100363.30;109530;1251;59085;-76
2024/01/21 00:33:33;;;;;;;20.00;12.80;;;;;;;-0.55;100.00;100365.39;109556;1251;59115;-75
2024/01/21 00:35:59;;;;;;;25.40;13.40;;;;;;;-0.57;100.00;100365.23;109560;1251;59044;-76
2024/01/21 00:38:26;;;;;;;22.70;13.00;;;;;;;-0.58;100.00;100362.96;109526;1251;59468;-74
2024/01/21 00:40:52;;;;;;;25.90;13.70;;;;;;;-0.58;100.00;100361.03;109541;1250;60130;-75
2024/01/21 00:43:19;;;;;;;23.70;12.80;;;;;;;-0.58;100.00;100360.87;109527;1251;64744;-76
2024/01/21 00:45:45;;;;;;;22.50;12.10;;;;;;;-0.57;100.00;100368.02;109503;1251;58923;-75
2024/01/21 00:48:12;;;;;;;23.20;12.80;;;;;;;-0.57;100.00;100369.59;109530;1251;59136;-75
2024/01/21 00:50:38;;;;;;;21.80;12.30;;;;;;;-0.56;100.00;100370.63;109540;1251;66978;-74
2024/01/21 00:53:05;;;;;;;23.30;13.30;;;;;;;-0.57;100.00;100370.45;109528;1251;61148;-76
2024/01/21 00:55:32;;;;;;;22.80;13.70;;;;;;;-0.57;100.00;100369.77;109506;1251;65078;-75
2024/01/21 00:57:58;;;;;;;21.40;13.50;;;;;;;-0.58;100.00;100371.86;109500;1251;59041;-76
2024/01/21 01:00:27;;;;;;;23.70;14.10;;;;;;;-0.57;100.00;100376.21;109509;1251;58903;-74
2024/01/21 01:02:53;;;;;;;21.00;12.50;;;;;;;-0.57;100.00;100380.77;109557;1251;66384;-74
2024/01/21 01:05:20;;;;;;;22.20;14.20;;;;;;;-0.56;100.00;100380.06;109529;1251;59850;-75
2024/01/21 01:07:46;;;;;;;25.20;13.60;;;;;;;-0.56;100.00;100377.43;109529;1251;65026;-75
2024/01/21 01:10:13;;;;;;;21.00;12.20;;;;;;;-0.55;100.00;100381.64;109533;1251;59014;-75
2024/01/21 01:12:40;;;;;;;24.60;14.50;;;;;;;-0.54;100.00;100380.58;108745;1251;1002900;-75
2024/01/21 01:15:13;;;;;;;23.30;13.70;;;;;;;-0.53;100.00;100375.52;109515;1253;66915;-76
2024/01/21 01:17:39;;;;;;;23.20;13.70;;;;;;;-0.53;100.00;100376.39;109592;1251;60067;-74
2024/01/21 01:20:06;;;;;;;23.40;14.30;;;;;;;-0.54;100.00;100379.54;109536;1251;64919;-75
2024/01/21 01:22:33;;;;;;;21.60;13.80;;;;;;;-0.57;100.00;100383.02;109529;1251;59049;-75
2024/01/21 01:25:00;;;;;;;19.50;13.20;;;;;;;-0.57;100.00;100386.88;109524;1251;59049;-74
2024/01/21 01:27:26;;;;;;;25.60;13.90;;;;;;;-0.58;100.00;100383.90;109540;1250;66784;-75
2024/01/21 01:29:53;;;;;;;25.00;15.80;;;;;;;-0.60;100.00;100383.72;109547;1251;60831;-74
2024/01/21 01:32:20;;;;;;;19.80;12.50;;;;;;;-0.62;100.00;100387.04;109496;1251;65011;-74
2024/01/21 01:34:46;;;;;;;24.10;12.90;;;;;;;-0.64;100.00;100386.52;109530;1251;59984;-76
2024/01/21 01:37:13;;;;;;;21.90;14.30;;;;;;;-0.67;100.00;100386.67;109545;1251;59195;-75
2024/01/21 01:39:40;;;;;;;20.30;13.10;;;;;;;-0.70;100.00;100387.02;109530;1251;66680;-74
2024/01/21 01:42:07;;;;;;;22.80;14.30;;;;;;;-0.72;100.00;100383.70;108658;1250;1002562;-74
2024/01/21 01:44:33;;;;;;;22.60;13.40;;;;;;;-0.74;100.00;100385.81;109542;1251;63751;-75
2024/01/21 01:47:00;;;;;;;22.20;14.00;;;;;;;-0.75;100.00;100386.84;109497;1251;59349;-76
2024/01/21 01:49:27;;;;;;;21.70;13.30;;;;;;;-0.76;100.00;100393.30;109540;1250;59057;-75
2024/01/21 01:51:55;;;;;;;17.20;12.40;;;;;;;-0.77;100.00;100396.98;109555;1250;66763;-75
2024/01/21 01:54:25;;;;;;;20.60;13.20;;;;;;;-0.77;100.00;100401.15;109548;1251;69982;-75
2024/01/21 01:56:52;;;;;;;19.30;12.50;;;;;;;-0.78;100.00;100403.24;109542;1251;65266;-75
2024/01/21 01:59:20;;;;;;;20.10;14.10;;;;;;;-0.78;100.00;100405.34;109540;1251;58943;-75
2024/01/21 02:01:47;;;;;;;20.50;12.50;;;;;;;-0.78;100.00;100408.66;109477;1251;59157;-75
2024/01/21 02:04:13;;;;;;;21.90;13.50;;;;;;;-0.77;100.00;100411.45;109340;1251;67052;-75
2024/01/21 02:06:40;;;;;;;20.70;13.10;;;;;;;-0.76;100.00;100411.27;109546;1250;61408;-74
2024/01/21 02:09:08;;;;;;;18.40;12.10;;;;;;;-0.75;100.00;100413.37;109540;1251;65091;-74
2024/01/21 02:11:34;;;;;;;17.50;12.70;;;;;;;-0.75;100.00;100409.71;109539;1251;58950;-75
2024/01/21 02:14:01;;;;;;;22.30;14.10;;;;;;;-0.74;100.00;100409.52;109569;1251;58864;-75
2024/01/21 02:16:28;;;;;;;18.00;13.20;;;;;;;-0.74;100.00;100406.39;109524;1251;66995;-73
2024/01/21 02:18:54;;;;;;;18.10;12.40;;;;;;;-0.73;100.00;100406.92;109265;1251;60738;-75
2024/01/21 02:21:21;;;;;;;18.20;12.30;;;;;;;-0.73;100.00;100405.00;108786;1251;1003109;-75
2024/01/21 02:23:47;;;;;;;18.40;12.50;;;;;;;-0.72;100.00;100406.39;109492;1251;59018;-75
2024/01/21 02:26:14;;;;;;;21.80;13.40;;;;;;;-0.71;100.00;100404.83;109535;1253;58984;-74
2024/01/21 02:28:40;;;;;;;23.10;14.30;;;;;;;-0.71;100.00;100402.73;109563;1251;66022;-74
2024/01/21 02:31:07;;;;;;;20.10;13.70;;;;;;;-0.71;100.00;100400.47;109533;1251;60299;-74
2024/01/21 02:33:33;;;;;;;19.20;13.70;;;;;;;-0.70;100.00;100400.98;109558;1251;63778;-75
2024/01/21 02:36:00;;;;;;;19.20;12.30;;;;;;;-0.70;100.00;100399.25;109536;1251;59168;-75
2024/01/21 02:38:27;;;;;;;22.80;13.70;;;;;;;-0.71;100.00;100400.64;109502;1251;58888;-75
2024/01/21 02:40:53;;;;;;;20.30;13.40;;;;;;;-0.71;100.00;100399.42;109407;1250;64857;-75
2024/01/21 02:43:20;;;;;;;25.20;14.10;;;;;;;-0.72;100.00;100398.02;109555;1251;61055;-75
2024/01/21 02:45:46;;;;;;;21.70;13.90;;;;;;;-0.72;100.00;100401.52;109533;1251;64103;-75
2024/01/21 02:48:13;;;;;;;28.20;14.50;;;;;;;-0.73;100.00;100403.96;109523;1253;59034;-75
2024/01/21 02:50:40;;;;;;;21.40;13.90;;;;;;;-0.73;100.00;100407.62;109555;1251;59378;-74
2024/01/21 02:53:06;;;;;;;19.80;13.10;;;;;;;-0.72;100.00;100408.48;109557;1251;66051;-74
2024/01/21 02:55:33;;;;;;;23.20;14.70;;;;;;;-0.72;100.00;100407.95;109531;1251;60114;-75
2024/01/21 02:58:00;;;;;;;22.70;12.70;;;;;;;-0.71;100.00;100409.02;109287;1251;65105;-75
2024/01/21 03:00:35;;;;;;;21.00;15.00;;;;;;;-0.70;100.00;100410.06;109541;1251;58977;-73
2024/01/21 03:03:02;;;;;;;21.00;13.70;;;;;;;-0.69;100.00;100410.76;109519;1251;59050;-74
2024/01/21 03:05:28;;;;;;;21.40;14.30;;;;;;;-0.66;100.00;100409.19;109567;1250;65968;-75
2024/01/21 03:07:55;;;;;;;19.20;13.30;;;;;;;-0.65;100.00;100411.82;109536;1251;60990;-74
2024/01/21 03:10:21;;;;;;;22.20;13.50;;;;;;;-0.63;100.00;100410.44;109530;1251;64016;-76
2024/01/21 03:12:48;;;;;;;21.30;14.10;;;;;;;-0.62;100.00;100409.91;109508;1251;59057;-73
2024/01/21 03:15:15;;;;;;;21.00;13.10;;;;;;;-0.62;100.00;100414.44;109524;1251;59062;-76
2024/01/21 03:17:41;;;;;;;20.40;13.20;;;;;;;-0.62;100.00;100419.67;109559;1250;67103;-76
2024/01/21 03:20:08;;;;;;;25.10;14.90;;;;;;;-0.61;100.00;100418.98;109573;1251;59034;-74
2024/01/21 03:22:35;;;;;;;21.20;14.00;;;;;;;-0.61;100.00;100422.30;109457;1251;65337;-75
2024/01/21 03:25:02;;;;;;;19.20;13.30;;;;;;;-0.59;100.00;100427.71;109572;1251;58943;-74
2024/01/21 03:27:28;;;;;;;18.60;13.50;;;;;;;-0.58;100.00;100427.35;109550;1251;59040;-75
2024/01/21 03:29:55;;;;;;;22.60;14.00;;;;;;;-0.58;100.00;100428.08;109564;1251;67266;-75
2024/01/21 03:32:21;;;;;;;20.40;13.60;;;;;;;-0.56;100.00;100430.33;109574;1251;61007;-75
2024/01/21 03:34:49;;;;;;;23.90;14.30;;;;;;;-0.55;100.00;100433.13;109550;1251;62781;-75
2024/01/21 03:37:15;;;;;;;19.10;12.40;;;;;;;-0.55;100.00;100433.13;109316;1251;59018;-75
2024/01/21 03:39:42;;;;;;;21.70;13.50;;;;;;;-0.56;100.00;100431.38;109592;1251;59009;-76
2024/01/21 03:42:08;;;;;;;23.40;15.00;;;;;;;-0.55;100.00;100434.17;109562;1250;67050;-76
2024/01/21 03:44:35;;;;;;;19.20;13.30;;;;;;;-0.54;100.00;100433.83;109534;1251;61056;-75
2024/01/21 03:47:02;;;;;;;20.70;14.10;;;;;;;-0.53;100.00;100431.56;109554;1251;62806;-75
2024/01/21 03:49:29;;;;;;;19.70;14.20;;;;;;;-0.52;100.00;100432.95;109526;1251;58956;-75
2024/01/21 03:51:55;;;;;;;19.20;12.60;;;;;;;-0.51;100.00;100435.73;109522;1251;59073;-75
2024/01/21 03:54:22;;;;;;;22.40;13.80;;;;;;;-0.50;100.00;100437.13;109579;1251;66005;-75
2024/01/21 03:56:48;;;;;;;19.20;12.80;;;;;;;-0.50;100.00;100436.09;109544;1251;61015;-75
2024/01/21 03:59:15;;;;;;;22.80;14.30;;;;;;;-0.49;100.00;100436.27;109555;1251;63763;-75
2024/01/21 04:01:43;;;;;;;21.60;13.20;;;;;;;-0.50;100.00;100437.50;109301;1251;58981;-75
2024/01/21 04:04:11;;;;;;;21.10;13.10;;;;;;;-0.49;100.00;100440.98;109532;1251;59036;-74
2024/01/21 04:06:42;;;;;;;20.00;12.60;;;;;;;-0.48;100.00;100437.67;109483;1251;66222;-74
2024/01/21 04:09:15;;;;;;;18.80;13.10;;;;;;;-0.48;100.00;100439.42;109236;1250;60795;-74
2024/01/21 04:11:44;;;;;;;21.30;13.40;;;;;;;-0.47;100.00;100440.46;109483;1251;64035;-75
2024/01/21 04:14:11;;;;;;;19.20;13.60;;;;;;;-0.47;100.00;100442.56;109536;1250;58950;-75
2024/01/21 04:16:39;;;;;;;21.10;12.80;;;;;;;-0.47;100.00;100441.34;109604;1251;59365;-76
2024/01/21 04:19:05;;;;;;;22.30;12.70;;;;;;;-0.47;100.00;100444.48;109225;1251;65992;-75
2024/01/21 04:21:32;;;;;;;21.20;14.10;;;;;;;-0.46;100.00;100448.51;109600;1251;61504;-75
2024/01/21 04:24:00;;;;;;;20.80;13.70;;;;;;;-0.46;100.00;100449.02;107802;1251;1003035;-74
2024/01/21 04:26:29;;;;;;;21.50;12.70;;;;;;;-0.46;100.00;100448.50;109530;1251;58937;-75
2024/01/21 04:28:56;;;;;;;20.60;13.60;;;;;;;-0.45;100.00;100451.29;109565;1251;58883;-75
2024/01/21 04:31:22;;;;;;;22.50;13.80;;;;;;;-0.46;100.00;100450.25;109537;1251;66232;-75
2024/01/21 04:33:49;;;;;;;21.20;13.30;;;;;;;-0.46;100.00;100454.61;109565;1250;61019;-74
2024/01/21 04:36:18;;;;;;;22.60;14.60;;;;;;;-0.45;100.00;100454.79;109538;1251;64117;-75
2024/01/21 04:38:45;;;;;;;19.50;13.90;;;;;;;-0.45;100.00;100456.19;109475;1251;59212;-75
2024/01/21 04:41:15;;;;;;;19.70;13.20;;;;;;;-0.44;100.00;100456.36;108796;1251;1002792;-75
2024/01/21 04:43:42;;;;;;;;;;;;;;;-0.44;100.00;100457.94;109568;1251;67011;-75
2024/01/21 04:46:09;;;;;;;22.40;13.80;;;;;;;-0.44;100.00;100464.05;109519;1250;61208;-74
2024/01/21 04:48:36;;;;;;;23.10;13.20;;;;;;;-0.43;100.00;100465.96;109310;1251;64027;-76
2024/01/21 04:51:03;;;;;;;20.40;13.40;;;;;;;-0.42;100.00;100464.56;109537;1251;59042;-74
2024/01/21 04:53:29;;;;;;;22.50;13.90;;;;;;;-0.42;100.00;100467.02;109479;1251;58896;-74
2024/01/21 04:55:56;;;;;;;21.40;13.70;;;;;;;-0.40;100.00;100466.48;109514;1251;66932;-75
2024/01/21 04:58:22;;;;;;;22.10;14.50;;;;;;;-0.40;100.00;100469.10;109603;1251;60037;-75
2024/01/21 05:00:49;;;;;;;22.00;14.90;;;;;;;-0.41;100.00;100471.03;109546;1251;64020;-74
2024/01/21 05:03:16;;;;;;;21.60;13.70;;;;;;;-0.42;100.00;100475.92;109269;1251;59075;-74
2024/01/21 05:05:42;;;;;;;19.80;13.30;;;;;;;-0.42;100.00;100478.19;109550;1251;59003;-74
2024/01/21 05:08:09;;;;;;;20.80;13.00;;;;;;;-0.43;100.00;100476.79;109589;1251;67091;-75
2024/01/21 05:10:36;;;;;;;18.30;12.70;;;;;;;-0.42;100.00;100480.45;109544;1251;60030;-75
2024/01/21 05:13:03;;;;;;;23.80;14.90;;;;;;;-0.43;100.00;100480.27;109540;1251;64038;-76
2024/01/21 05:15:30;;;;;;;21.60;14.30;;;;;;;-0.42;100.00;100479.05;109474;1251;59015;-74
2024/01/21 05:17:56;;;;;;;24.40;15.50;;;;;;;-0.42;100.00;100474.35;109574;1251;58992;-75
2024/01/21 05:20:23;;;;;;;22.90;15.00;;;;;;;-0.41;100.00;100473.66;109518;1251;67025;-75
2024/01/21 05:22:54;;;;;;;23.30;14.30;;;;;;;-0.40;100.00;100470.50;109298;1251;60106;-76
2024/01/21 05:25:21;;;;;;;21.80;15.40;;;;;;;-0.40;100.00;100467.70;109520;1251;65203;-75
2024/01/21 05:27:47;;;;;;;21.30;14.30;;;;;;;-0.41;100.00;100467.72;109532;1251;58985;-75
2024/01/21 05:30:15;;;;;;;21.20;13.30;;;;;;;-0.41;100.00;100467.19;109513;1251;58884;-75
2024/01/21 05:32:46;;;;;;;25.60;14.90;;;;;;;-0.41;100.00;100464.58;109272;1250;65464;-76
2024/01/21 05:35:13;;;;;;;20.40;14.10;;;;;;;-0.41;100.00;100465.09;109511;1251;61121;-76
2024/01/21 05:37:39;;;;;;;20.10;13.90;;;;;;;-0.39;100.00;100471.38;109468;1251;64345;-75
2024/01/21 05:40:06;;;;;;;20.70;14.70;;;;;;;-0.39;100.00;100469.98;109513;1251;59412;-76
2024/01/21 05:42:33;;;;;;;23.40;14.40;;;;;;;-0.39;100.00;100468.59;109467;1251;59145;-75
2024/01/21 05:45:00;;;;;;;23.20;13.50;;;;;;;-0.39;100.00;100470.69;109480;1251;66211;-74
2024/01/21 05:47:26;;;;;;;23.00;14.50;;;;;;;-0.39;100.00;100470.34;109602;1250;59759;-76
2024/01/21 05:49:53;;;;;;;25.50;14.90;;;;;;;-0.38;100.00;100470.69;109515;1251;65122;-76
2024/01/21 05:52:19;;;;;;;19.30;14.20;;;;;;;-0.38;100.00;100468.94;109479;1251;59012;-76
2024/01/21 05:54:46;;;;;;;21.40;15.40;;;;;;;-0.36;100.00;100470.33;109533;1251;59131;-76
2024/01/21 05:57:13;;;;;;;25.10;17.60;;;;;;;-0.36;100.00;100471.73;109527;1251;67015;-76
2024/01/21 05:59:39;;;;;;;23.40;16.60;;;;;;;-0.36;100.00;100471.58;109489;1251;61065;-75
2024/01/21 06:02:10;;;;;;;32.30;18.90;;;;;;;-0.36;100.00;100470.35;109533;1251;64045;-75
2024/01/21 06:04:40;;;;;;;30.00;18.70;;;;;;;-0.37;100.00;100467.02;109496;1251;59231;-76
2024/01/21 06:07:07;;;;;;;32.90;20.10;;;;;;;-0.38;100.00;100465.09;109539;1251;59248;-75
2024/01/21 06:09:33;;;;;;;30.10;18.50;;;;;;;-0.39;100.00;100463.88;109481;1251;65903;-75
2024/01/21 06:12:00;;;;;;;31.50;19.80;;;;;;;-0.40;100.00;100465.80;109517;1255;61058;-76
2024/01/21 06:14:27;;;;;;;34.00;20.30;;;;;;;-0.39;100.00;100467.90;109532;1251;65040;-75
2024/01/21 06:16:53;;;;;;;35.50;21.10;;;;;;;-0.39;100.00;100468.09;109335;1251;59097;-75
2024/01/21 06:19:20;;;;;;;31.00;20.40;;;;;;;-0.38;100.00;100469.11;109532;1251;58955;-74
2024/01/21 06:21:47;;;;;;;33.90;20.20;;;;;;;-0.37;100.00;100468.08;109562;1251;66965;-75
2024/01/21 06:24:13;;;;;;;33.00;20.20;;;;;;;-0.36;100.00;100466.50;109315;1251;60603;-75
2024/01/21 06:26:40;;;;;;;42.00;25.30;;;;;;;-0.35;100.00;100465.80;109350;1251;65027;-74
2024/01/21 06:29:07;;;;;;;34.40;21.30;;;;;;;-0.33;100.00;100465.27;109523;1251;59353;-75
2024/01/21 06:31:35;;;;;;;32.30;20.40;;;;;;;-0.30;100.00;100461.61;109546;1251;59043;-75
2024/01/21 06:34:01;;;;;;;34.00;21.00;;;;;;;-0.28;100.00;100463.36;109502;1251;67026;-76
2024/01/21 06:36:28;;;;;;;28.30;19.20;;;;;;;-0.27;100.00;100464.58;109537;1251;61648;-75
2024/01/21 06:38:54;;;;;;;31.10;19.20;;;;;;;-0.26;100.00;100467.20;109511;1251;65319;-75
2024/01/21 06:41:21;;;;;;;30.40;20.60;;;;;;;-0.23;100.00;100468.27;109489;1251;59247;-75
2024/01/21 06:43:48;;;;;;;30.50;19.00;;;;;;;-0.21;100.00;100472.80;109537;1251;59030;-75
2024/01/21 06:46:15;;;;;;;27.00;18.20;;;;;;;-0.20;100.00;100471.58;109525;1251;66043;-75
2024/01/21 06:48:42;;;;;;;27.90;19.50;;;;;;;-0.20;100.00;100472.11;109530;1251;60071;-75
2024/01/21 06:51:20;;;;;;;32.40;20.30;;;;;;;-0.19;100.00;100473.31;109509;1251;65019;-74
2024/01/21 06:53:47;;;;;;;30.50;19.30;;;;;;;-0.16;100.00;100474.38;109377;1251;58978;-76
2024/01/21 06:56:13;;;;;;;29.80;19.30;;;;;;;-0.13;100.00;100472.80;109296;1251;59127;-75
2024/01/21 06:58:40;;;;;;;26.30;18.40;;;;;;;-0.11;100.00;100475.25;109508;1251;66146;-76
2024/01/21 07:01:06;;;;;;;24.40;19.10;;;;;;;-0.08;100.00;100477.00;109297;1251;67095;-75
2024/01/21 07:03:33;;;;;;;26.40;18.40;;;;;;;-0.05;100.00;100475.08;109541;1251;65343;-75
2024/01/21 07:05:59;;;;;;;25.20;17.80;;;;;;;-0.02;100.00;100473.85;109501;1251;58989;-75
2024/01/21 07:08:26;;;;;;;28.00;18.40;;;;;;;-0.00;100.00;100475.42;109538;1251;59028;-75
2024/01/21 07:10:52;;;;;;;28.90;19.00;;;;;;;0.03;100.00;100472.11;109538;1251;67013;-74
2024/01/21 07:13:19;;;;;;;27.20;18.90;;;;;;;0.07;100.00;100464.23;109564;1251;60831;-76
2024/01/21 07:15:46;;;;;;;27.70;19.60;;;;;;;0.10;100.00;100463.52;109494;1251;65147;-76
2024/01/21 07:18:12;;;;;;;26.70;19.50;;;;;;;0.14;100.00;100462.48;109501;1251;59022;-75
2024/01/21 07:20:39;;;;;;;25.60;18.70;;;;;;;0.19;100.00;100462.83;109530;1251;59269;-75
2024/01/21 07:23:06;;;;;;;28.40;19.40;;;;;;;0.27;100.00;100468.58;109543;1251;66132;-76
2024/01/21 07:25:32;;;;;;;29.50;19.00;;;;;;;0.33;100.00;100473.30;108769;1251;1002643;-75
2024/01/21 07:27:59;;;;;;;28.40;20.60;;;;;;;0.37;100.00;100470.14;109489;1251;59229;-76
2024/01/21 07:30:26;;;;;;;32.80;22.60;;;;;;;0.41;100.00;100469.61;109501;1251;58967;-75
2024/01/21 07:32:52;;;;;;;38.80;24.30;;;;;;;0.47;100.00;100473.45;109566;1251;59572;-75
2024/01/21 07:35:19;;;;;;;36.60;24.00;;;;;;;0.53;100.00;100470.80;109541;1251;67069;-76
2024/01/21 07:37:46;;;;;;;41.60;26.80;;;;;;;0.59;100.00;100467.65;109539;1251;61155;-76
2024/01/21 07:40:13;;;;;;;40.10;25.60;;;;;;;0.63;100.00;100467.28;109523;1251;64877;-74
2024/01/21 07:42:39;;;;;;;39.20;24.00;;;;;;;0.69;100.00;100465.17;109550;1251;59006;-76
2024/01/21 07:45:07;;;;;;;41.40;26.50;;;;;;;0.73;100.00;100472.68;109551;1251;59263;-74
2024/01/21 07:47:33;;;;;;;41.20;26.50;;;;;;;0.80;100.00;100476.84;108755;1251;1002991;-75
2024/01/21 07:50:00;;;;;;;43.60;27.50;;;;;;;0.86;100.00;100476.66;109506;1251;59359;-75
2024/01/21 07:52:26;;;;;;;46.50;28.90;;;;;;;0.92;100.00;100476.64;109490;1251;59176;-75
2024/01/21 07:54:53;;;;;;;39.80;27.20;;;;;;;1.00;100.00;100475.39;109494;1251;59030;-76
2024/01/21 07:57:20;;;;;;;44.20;29.30;;;;;;;1.08;100.00;100478.14;109463;1251;59143;-76
2024/01/21 07:59:46;;;;;;;35.80;26.90;;;;;;;1.18;100.00;100481.79;109560;1251;59036;-75
2024/01/21 08:02:13;;;;;;;42.90;27.60;;;;;;;1.25;100.00;100480.52;108026;1251;1006295;-76
2024/01/21 08:04:40;;;;;;;40.60;28.40;;;;;;;1.33;100.00;100479.61;109526;1251;59385;-75
2024/01/21 08:07:07;;;;;;;39.10;28.00;;;;;;;1.41;100.00;100480.95;109508;1255;59049;-76
2024/01/21 08:09:33;;;;;;;41.60;28.40;;;;;;;1.51;100.00;100481.25;109584;1251;59137;-74
2024/01/21 08:12:00;;;;;;;37.00;27.00;;;;;;;1.59;100.00;100488.39;109508;1251;58959;-75
2024/01/21 08:14:27;;;;;;;35.80;27.90;;;;;;;1.64;100.00;100493.07;109517;1251;61096;-75
2024/01/21 08:16:53;;;;;;;38.30;26.60;;;;;;;1.72;100.00;100494.77;109526;1251;65087;-74
2024/01/21 08:19:20;;;;;;;35.20;27.00;;;;;;;1.81;100.00;100495.77;109528;1251;59005;-74
2024/01/21 08:21:47;;;;;;;35.60;25.50;;;;;;;1.86;100.00;100496.42;109528;1251;59180;-75
2024/01/21 08:24:14;;;;;;;36.60;26.00;;;;;;;1.93;100.00;100494.29;109537;1254;65313;-76
2024/01/21 08:26:40;;;;;;;41.90;26.90;;;;;;;1.99;100.00;100494.23;109223;1251;60474;-72
2024/01/21 08:29:07;;;;;;;34.30;25.90;;;;;;;2.05;100.00;100499.96;109445;1253;64117;-74
2024/01/21 08:31:41;;;;;;;39.70;27.20;;;;;;;2.14;100.00;100501.63;109483;1251;59010;-74
2024/01/21 08:34:07;;;;;;;39.20;27.80;;;;;;;2.24;100.00;100502.61;109523;1251;58987;-74
2024/01/21 08:36:34;;;;;;;43.30;28.30;;;;;;;2.34;100.00;100503.22;109536;1252;67267;-72
2024/01/21 08:39:00;;;;;;;40.80;27.60;;;;;;;2.43;100.00;100503.85;109488;1253;60079;-72
2024/01/21 08:41:27;;;;;;;42.10;28.80;;;;;;;2.55;100.00;100507.41;109223;1253;64762;-74
2024/01/21 08:43:53;;;;;;;45.00;30.20;;;;;;;2.62;100.00;100510.67;109476;1255;59120;-73
2024/01/21 08:46:20;;;;;;;42.20;29.60;;;;;;;2.72;100.00;100511.79;109449;1253;58954;-73
2024/01/21 08:48:47;;;;;;;36.40;27.10;;;;;;;2.81;100.00;100513.45;109449;1253;65954;-73
2024/01/21 08:51:13;;;;;;;36.50;26.30;;;;;;;2.87;100.00;100517.41;109306;1253;61127;-74
2024/01/21 08:53:40;;;;;;;48.30;33.00;;;;;;;2.93;100.00;100521.05;109497;1253;65324;-73
2024/01/21 08:56:07;;;;;;;42.30;31.50;;;;;;;2.93;100.00;100521.57;109138;1251;59017;-74
2024/01/21 08:58:33;;;;;;;42.20;28.00;;;;;;;2.95;100.00;100520.67;109537;1252;59856;-75
2024/01/21 09:01:00;;;;;;;35.00;25.60;;;;;;;2.98;100.00;100521.00;109477;1253;67268;-73
2024/01/21 09:03:27;;;;;;;39.10;25.60;;;;;;;3.02;100.00;100520.95;109132;1256;61132;-74
2024/01/21 09:05:53;;;;;;;37.00;26.30;;;;;;;3.07;100.00;100520.35;109110;1257;64055;-73
2024/01/21 09:08:21;;;;;;;39.30;26.80;;;;;;;3.18;100.00;100516.89;109094;1255;59026;-74
2024/01/21 09:10:48;;;;;;;48.40;33.50;;;;;;;3.32;100.00;100515.66;109136;1256;59131;-73
2024/01/21 09:13:14;;;;;;;64.60;44.30;;;;;;;3.43;100.00;100513.77;109123;1256;66013;-74
2024/01/21 09:15:41;;;;;;;42.60;28.40;;;;;;;3.52;100.00;100517.14;109124;1256;60025;-73
2024/01/21 09:18:07;;;;;;;40.20;27.00;;;;;;;3.60;100.00;100517.21;109117;1257;64197;-73
2024/01/21 09:20:34;;;;;;;43.90;29.60;;;;;;;3.72;100.00;100516.69;109125;1257;59070;-73
2024/01/21 09:23:01;;;;;;;38.80;27.70;;;;;;;3.85;100.00;100515.98;109125;1255;58935;-74
2024/01/21 09:25:27;;;;;;;41.30;27.90;;;;;;;3.92;100.00;100515.88;109145;1257;65813;-73
2024/01/21 09:27:54;;;;;;;42.10;28.00;;;;;;;3.96;100.00;100512.64;109103;1260;60979;-73
2024/01/21 09:30:20;;;;;;;37.40;26.30;;;;;;;4.07;100.00;100511.59;109102;1257;65248;-73
2024/01/21 09:32:47;;;;;;;36.40;25.60;;;;;;;4.17;100.00;100513.19;109113;1256;59030;-73
2024/01/21 09:35:13;;;;;;;35.90;24.80;;;;;;;4.30;100.00;100512.80;109436;1251;59427;-72
2024/01/21 09:37:40;;;;;;;31.30;20.90;;;;;;;4.46;100.00;100508.13;109529;1251;67115;-73
2024/01/21 09:40:07;;;;;;;27.80;19.80;;;;;;;4.59;100.00;100504.89;109316;1251;60717;-74
2024/01/21 09:42:34;;;;;;;27.10;19.40;;;;;;;4.74;100.00;100503.39;109496;1251;65091;-74
2024/01/21 09:45:01;;;;;;;27.60;18.70;;;;;;;4.87;100.00;100502.27;109310;1251;59054;-71
2024/01/21 09:47:28;;;;;;;29.60;20.10;;;;;;;4.99;100.00;100505.56;109541;1255;59018;-74
2024/01/21 09:49:56;;;;;;;28.10;18.90;;;;;;;5.03;100.00;100504.06;109534;1251;66011;-75
2024/01/21 09:52:23;;;;;;;27.80;19.30;;;;;;;5.08;100.00;100502.55;109507;1251;60049;-74
2024/01/21 09:54:53;;;;;;;45.00;21.00;;;;;;;5.09;100.00;100501.30;109285;1251;65056;-73
2024/01/21 09:57:20;;;;;;;32.20;20.60;;;;;;;5.08;100.00;100502.20;109511;1255;59210;-73
2024/01/21 09:59:47;;;;;;;29.20;19.30;;;;;;;5.04;100.00;100502.45;109442;1251;122708;-75
2024/01/21 10:02:16;;;;;;;26.80;19.40;;;;;;;5.03;100.00;100500.72;109546;1251;66007;-74
2024/01/21 10:04:44;;;;;;;27.40;18.50;;;;;;;5.06;100.00;100500.83;109524;1256;61075;-73
2024/01/21 10:07:12;;;;;;;25.30;18.00;;;;;;;5.13;100.00;100499.11;109528;1251;63985;-74
2024/01/21 10:09:39;;;;;;;27.10;18.80;;;;;;;5.22;100.00;100494.52;109519;1251;59024;-74
2024/01/21 10:12:07;;;;;;;28.50;19.70;;;;;;;5.30;100.00;100493.30;109540;1251;60025;-75
2024/01/21 10:14:34;;;;;;;29.20;19.40;;;;;;;5.34;100.00;100493.55;109467;1256;67066;-74
2024/01/21 10:17:00;;;;;;;33.10;21.50;;;;;;;5.36;100.00;100494.39;109173;1251;59005;-74
2024/01/21 10:19:30;;;;;;;37.70;22.70;;;;;;;5.42;100.00;100491.09;109444;1251;64882;-74
2024/01/21 10:22:16;;;;;;;38.90;23.90;;;;;;;5.50;100.00;100487.21;109287;1251;59001;-73
2024/01/21 10:24:44;;;;;;;38.50;22.90;;;;;;;5.48;100.00;100490.06;109493;1255;59150;-74
2024/01/21 10:27:12;;;;;;;42.00;24.60;;;;;;;5.44;100.00;100489.26;109461;1251;65663;-73
2024/01/21 10:29:41;;;;;;;40.00;24.90;;;;;;;5.43;100.00;100482.25;109444;1256;61208;-73
2024/01/21 10:32:09;;;;;;;40.00;25.50;;;;;;;5.45;100.00;100478.16;109457;1251;64025;-73
2024/01/21 10:34:45;;;;;;;43.50;25.80;;;;;;;5.43;100.00;100473.25;109422;1251;59614;-75
2024/01/21 10:37:17;;;;;;;41.00;22.50;;;;;;;5.39;100.00;100469.83;109275;1251;58895;-73
2024/01/21 10:39:48;;;;;;;38.00;23.70;;;;;;;5.32;100.00;100468.20;109488;1251;66960;-73
2024/01/21 10:42:16;;;;;;;39.40;24.10;;;;;;;5.21;100.00;100459.81;109459;1251;61118;-73
2024/01/21 10:44:43;;;;;;;40.20;24.50;;;;;;;5.15;100.00;100452.20;109478;1251;65446;-76
2024/01/21 10:47:11;;;;;;;36.60;22.50;;;;;;;5.08;100.00;100451.81;109271;1254;59071;-74
2024/01/21 10:49:39;;;;;;;28.00;18.30;;;;;;;5.06;100.00;100448.86;109455;1255;58982;-74
2024/01/21 10:52:09;;;;;;;29.20;18.70;;;;;;;5.00;100.00;100442.65;109465;1253;67002;-74
2024/01/21 10:54:37;;;;;;;55.00;31.20;;;;;;;4.94;100.00;100441.52;109507;1254;60050;-74
2024/01/21 10:57:04;;;;;;;41.00;26.30;;;;;;;4.90;100.00;100440.73;109448;1256;63981;-74